SAS1914 EDDL-EKCH
Flight info
| Callsign | SAS1914 |
|---|---|
| Flight time | 0h 59m |
| Altitude | 35000 |
| Route | MEVEL4T/23L MEVEL Y850 BASUM M170 STADE DCT MEGAR P605 GESKA Z711 MONAK |
| Aircraft | B763/H-SDE3FGHIM3RWXY/LB1 |
Departure
| Time | 2026-05-04 19:03 |
|---|---|
| Airport | Düsseldorf Airport (EDDL) |
Arrival
| Time | 2026-05-04 20:03 |
|---|---|
| Airport | Copenhagen Kastrup Airport (EKCH) |
| Time | Latitude | Longitude | Altitude | Speed | Heading |
|---|---|---|---|---|---|
| 2026-05-04 18:04 | 51.27881 | 6.76318 | 157 ft | 0 kts | 50° |
| 2026-05-04 18:19 | 51.27880 | 6.76318 | 156 ft | 0 kts | 50° |
| 2026-05-04 18:22 | 51.27872 | 6.76301 | 156 ft | 2 kts | 55° |
| 2026-05-04 18:22 | 51.27864 | 6.76281 | 156 ft | 2 kts | 60° |
| 2026-05-04 18:22 | 51.27857 | 6.76260 | 156 ft | 2 kts | 65° |
| 2026-05-04 18:23 | 51.27851 | 6.76238 | 156 ft | 2 kts | 70° |
| 2026-05-04 18:23 | 51.27846 | 6.76215 | 156 ft | 2 kts | 75° |
| 2026-05-04 18:23 | 51.27843 | 6.76192 | 156 ft | 2 kts | 80° |
| 2026-05-04 18:23 | 51.27841 | 6.76168 | 156 ft | 2 kts | 85° |
| 2026-05-04 18:24 | 51.27840 | 6.76144 | 156 ft | 2 kts | 89° |
| 2026-05-04 18:24 | 51.27840 | 6.76121 | 156 ft | 2 kts | 89° |
| 2026-05-04 18:24 | 51.27838 | 6.76097 | 156 ft | 2 kts | 70° |
| 2026-05-04 18:24 | 51.27831 | 6.76076 | 156 ft | 2 kts | 54° |
| 2026-05-04 18:25 | 51.27821 | 6.76058 | 156 ft | 2 kts | 38° |
| 2026-05-04 18:25 | 51.27809 | 6.76046 | 156 ft | 2 kts | 22° |
| 2026-05-04 18:25 | 51.27795 | 6.76040 | 156 ft | 2 kts | 7° |
| 2026-05-04 18:25 | 51.27780 | 6.76040 | 156 ft | 2 kts | 354° |
| 2026-05-04 18:26 | 51.27765 | 6.76042 | 156 ft | 2 kts | 356° |
| 2026-05-04 18:26 | 51.27750 | 6.76044 | 156 ft | 2 kts | 356° |
| 2026-05-04 18:26 | 51.27743 | 6.76044 | 156 ft | 0 kts | 356° |
| 2026-05-04 18:28 | 51.27771 | 6.76042 | 156 ft | 7 kts | 359° |
| 2026-05-04 18:29 | 51.27811 | 6.76043 | 156 ft | 6 kts | 1° |
| 2026-05-04 18:29 | 51.27857 | 6.76044 | 156 ft | 3 kts | 1° |
| 2026-05-04 18:29 | 51.27885 | 6.76045 | 156 ft | 3 kts | 1° |
| 2026-05-04 18:29 | 51.27914 | 6.76047 | 156 ft | 5 kts | 2° |
| 2026-05-04 18:30 | 51.28017 | 6.76048 | 156 ft | 8 kts | 360° |
| 2026-05-04 18:30 | 51.28078 | 6.76045 | 156 ft | 8 kts | 356° |
| 2026-05-04 18:30 | 51.28138 | 6.76069 | 156 ft | 10 kts | 32° |
| 2026-05-04 18:31 | 51.28202 | 6.76180 | 156 ft | 16 kts | 54° |
| 2026-05-04 18:31 | 51.28233 | 6.76254 | 156 ft | 4 kts | 50° |
| 2026-05-04 18:31 | 51.28265 | 6.76316 | 156 ft | 10 kts | 50° |
| 2026-05-04 18:31 | 51.28316 | 6.76414 | 156 ft | 12 kts | 51° |
| 2026-05-04 18:32 | 51.28370 | 6.76524 | 156 ft | 13 kts | 53° |
| 2026-05-04 18:32 | 51.28418 | 6.76621 | 156 ft | 2 kts | 52° |
| 2026-05-04 18:32 | 51.28419 | 6.76625 | 156 ft | 0 kts | 52° |
| 2026-05-04 18:32 | 51.28422 | 6.76630 | 156 ft | 2 kts | 52° |
| 2026-05-04 18:33 | 51.28426 | 6.76640 | 156 ft | 0 kts | 52° |
| 2026-05-04 18:33 | 51.28432 | 6.76651 | 156 ft | 2 kts | 53° |
| 2026-05-04 18:33 | 51.28453 | 6.76694 | 156 ft | 7 kts | 53° |
| 2026-05-04 18:33 | 51.28489 | 6.76775 | 156 ft | 10 kts | 55° |
| 2026-05-04 18:34 | 51.28542 | 6.76888 | 156 ft | 14 kts | 53° |
| 2026-05-04 18:34 | 51.28610 | 6.77034 | 157 ft | 18 kts | 53° |
| 2026-05-04 18:34 | 51.28690 | 6.77198 | 156 ft | 17 kts | 53° |
| 2026-05-04 18:34 | 51.28761 | 6.77350 | 157 ft | 17 kts | 53° |
| 2026-05-04 18:35 | 51.28837 | 6.77508 | 157 ft | 18 kts | 53° |
| 2026-05-04 18:35 | 51.28916 | 6.77676 | 156 ft | 19 kts | 53° |
| 2026-05-04 18:35 | 51.28978 | 6.77808 | 157 ft | 13 kts | 52° |
| 2026-05-04 18:35 | 51.29039 | 6.77932 | 157 ft | 14 kts | 52° |
| 2026-05-04 18:36 | 51.29085 | 6.78027 | 157 ft | 7 kts | 52° |
| 2026-05-04 18:36 | 51.29120 | 6.78099 | 156 ft | 8 kts | 52° |
| 2026-05-04 18:36 | 51.29156 | 6.78172 | 156 ft | 7 kts | 53° |
| 2026-05-04 18:36 | 51.29177 | 6.78216 | 156 ft | 2 kts | 53° |
| 2026-05-04 18:37 | 51.29185 | 6.78235 | 156 ft | 5 kts | 54° |
| 2026-05-04 18:37 | 51.29194 | 6.78253 | 156 ft | 0 kts | 55° |
| 2026-05-04 18:37 | 51.29195 | 6.78256 | 156 ft | 1 kts | 55° |
| 2026-05-04 18:38 | 51.29207 | 6.78283 | 157 ft | 4 kts | 54° |
| 2026-05-04 18:38 | 51.29229 | 6.78329 | 157 ft | 4 kts | 53° |
| 2026-05-04 18:38 | 51.29252 | 6.78379 | 156 ft | 6 kts | 54° |
| 2026-05-04 18:38 | 51.29284 | 6.78447 | 157 ft | 8 kts | 52° |
| 2026-05-04 18:39 | 51.29307 | 6.78493 | 157 ft | 0 kts | 51° |
| 2026-05-04 18:39 | 51.29311 | 6.78500 | 157 ft | 0 kts | 51° |
| 2026-05-04 18:39 | 51.29315 | 6.78508 | 157 ft | 3 kts | 51° |
| 2026-05-04 18:39 | 51.29319 | 6.78517 | 157 ft | 0 kts | 51° |
| 2026-05-04 18:41 | 51.29325 | 6.78528 | 156 ft | 3 kts | 51° |
| 2026-05-04 18:41 | 51.29338 | 6.78549 | 157 ft | 3 kts | 39° |
| 2026-05-04 18:42 | 51.29363 | 6.78566 | 156 ft | 0 kts | 12° |
| 2026-05-04 18:42 | 51.29364 | 6.78566 | 156 ft | 0 kts | 10° |
| 2026-05-04 18:42 | 51.29386 | 6.78572 | 156 ft | 1 kts | 7° |
| 2026-05-04 18:42 | 51.29388 | 6.78572 | 157 ft | 0 kts | 2° |
| 2026-05-04 18:47 | 51.29391 | 6.78572 | 157 ft | 2 kts | 2° |
| 2026-05-04 18:47 | 51.29425 | 6.78572 | 157 ft | 4 kts | 356° |
| 2026-05-04 18:47 | 51.29430 | 6.78571 | 157 ft | 0 kts | 356° |
| 2026-05-04 18:59 | 51.29436 | 6.78571 | 157 ft | 3 kts | 356° |
| 2026-05-04 18:59 | 51.29492 | 6.78565 | 156 ft | 11 kts | 356° |
| 2026-05-04 18:59 | 51.29547 | 6.78556 | 157 ft | 3 kts | 339° |
| 2026-05-04 19:00 | 51.29551 | 6.78535 | 157 ft | 1 kts | 257° |
| 2026-05-04 19:00 | 51.29549 | 6.78530 | 156 ft | 0 kts | 235° |
| 2026-05-04 19:02 | 51.29538 | 6.78506 | 156 ft | 12 kts | 234° |
| 2026-05-04 19:03 | 51.29361 | 6.78139 | 157 ft | 76 kts | 232° |
| 2026-05-04 19:03 | 51.28894 | 6.77168 | 157 ft | 141 kts | 232° |
| 2026-05-04 19:03 | 51.28207 | 6.75731 | 384 ft | 179 kts | 232° |
| 2026-05-04 19:03 | 51.27450 | 6.74118 | 1259 ft | 183 kts | 231° |
| 2026-05-04 19:04 | 51.26879 | 6.72378 | 2044 ft | 189 kts | 258° |
| 2026-05-04 19:04 | 51.27096 | 6.70282 | 2738 ft | 201 kts | 300° |
| 2026-05-04 19:04 | 51.28144 | 6.68838 | 3459 ft | 211 kts | 336° |
| 2026-05-04 19:04 | 51.29691 | 6.68493 | 3714 ft | 248 kts | 5° |
| 2026-05-04 19:05 | 51.31511 | 6.68772 | 4378 ft | 270 kts | 4° |
| 2026-05-04 19:05 | 51.33377 | 6.68982 | 5356 ft | 279 kts | 4° |
| 2026-05-04 19:05 | 51.35337 | 6.69201 | 6326 ft | 288 kts | 4° |
| 2026-05-04 19:05 | 51.37316 | 6.69415 | 7415 ft | 293 kts | 3° |
| 2026-05-04 19:06 | 51.39325 | 6.69579 | 8576 ft | 293 kts | 359° |
| 2026-05-04 19:06 | 51.41367 | 6.69575 | 9658 ft | 297 kts | 359° |
| 2026-05-04 19:06 | 51.43399 | 6.69580 | 10652 ft | 303 kts | 359° |
| 2026-05-04 19:06 | 51.45635 | 6.69581 | 10904 ft | 338 kts | 359° |
| 2026-05-04 19:07 | 51.48093 | 6.69588 | 11317 ft | 368 kts | 359° |
| 2026-05-04 19:07 | 51.50650 | 6.69596 | 12443 ft | 376 kts | 360° |
| 2026-05-04 19:07 | 51.53294 | 6.69602 | 13575 ft | 382 kts | 0° |
| 2026-05-04 19:07 | 51.55946 | 6.69612 | 14646 ft | 388 kts | 360° |
| 2026-05-04 19:08 | 51.58641 | 6.69871 | 15649 ft | 395 kts | 10° |
| 2026-05-04 19:08 | 51.61252 | 6.71200 | 16627 ft | 401 kts | 26° |
| 2026-05-04 19:08 | 51.63598 | 6.73602 | 17572 ft | 407 kts | 40° |
| 2026-05-04 19:08 | 51.65532 | 6.76900 | 18430 ft | 413 kts | 54° |
| 2026-05-04 19:09 | 51.67176 | 6.80675 | 19367 ft | 417 kts | 56° |
| 2026-05-04 19:09 | 51.68905 | 6.84504 | 20151 ft | 425 kts | 55° |
| 2026-05-04 19:09 | 51.70631 | 6.88322 | 20984 ft | 431 kts | 54° |
| 2026-05-04 19:09 | 51.72424 | 6.92254 | 21787 ft | 437 kts | 54° |
| 2026-05-04 19:10 | 51.74236 | 6.96224 | 22568 ft | 444 kts | 54° |
| 2026-05-04 19:10 | 51.76047 | 7.00193 | 23309 ft | 450 kts | 54° |
| 2026-05-04 19:10 | 51.77924 | 7.04309 | 23949 ft | 459 kts | 54° |
| 2026-05-04 19:10 | 51.79833 | 7.08503 | 23948 ft | 471 kts | 55° |
| 2026-05-04 19:11 | 51.81758 | 7.12733 | 23946 ft | 460 kts | 54° |
| 2026-05-04 19:11 | 51.83626 | 7.16847 | 23946 ft | 451 kts | 54° |
| 2026-05-04 19:11 | 51.85503 | 7.20838 | 23948 ft | 451 kts | 50° |
| 2026-05-04 19:11 | 51.87721 | 7.24522 | 23978 ft | 458 kts | 43° |
| 2026-05-04 19:12 | 51.90036 | 7.28049 | 24435 ft | 464 kts | 44° |
| 2026-05-04 19:12 | 51.94734 | 7.35326 | 25928 ft | 475 kts | 44° |
| 2026-05-04 19:12 | 51.97110 | 7.39027 | 26587 ft | 482 kts | 44° |
| 2026-05-04 19:13 | 51.99504 | 7.42769 | 27863 ft | 472 kts | 44° |
| 2026-05-04 19:13 | 52.01794 | 7.46353 | 28992 ft | 451 kts | 44° |
| 2026-05-04 19:13 | 52.04038 | 7.49875 | 28891 ft | 441 kts | 44° |
| 2026-05-04 19:13 | 52.06183 | 7.53248 | 28951 ft | 425 kts | 44° |
| 2026-05-04 19:14 | 52.08324 | 7.56617 | 28972 ft | 434 kts | 44° |
| 2026-05-04 19:14 | 52.10538 | 7.60107 | 28983 ft | 453 kts | 44° |
| 2026-05-04 19:14 | 52.12833 | 7.63730 | 28987 ft | 472 kts | 44° |
| 2026-05-04 19:14 | 52.15248 | 7.67548 | 29019 ft | 491 kts | 44° |
| 2026-05-04 19:15 | 52.17685 | 7.71407 | 29504 ft | 498 kts | 44° |
| 2026-05-04 19:15 | 52.20233 | 7.75448 | 29631 ft | 514 kts | 44° |
| 2026-05-04 19:15 | 52.22784 | 7.79500 | 30219 ft | 519 kts | 44° |
| 2026-05-04 19:15 | 52.25384 | 7.83638 | 30844 ft | 522 kts | 44° |
| 2026-05-04 19:16 | 52.27976 | 7.87770 | 31583 ft | 522 kts | 44° |
| 2026-05-04 19:16 | 52.30554 | 7.91890 | 32350 ft | 522 kts | 44° |
| 2026-05-04 19:16 | 52.33146 | 7.96035 | 33076 ft | 521 kts | 44° |
| 2026-05-04 19:16 | 52.35711 | 8.00145 | 33741 ft | 521 kts | 44° |
| 2026-05-04 19:17 | 52.38304 | 8.04307 | 34275 ft | 522 kts | 44° |
| 2026-05-04 19:17 | 52.40925 | 8.08523 | 34083 ft | 528 kts | 44° |
| 2026-05-04 19:17 | 52.43492 | 8.12659 | 34369 ft | 514 kts | 43° |
| 2026-05-04 19:17 | 52.46014 | 8.16730 | 34628 ft | 510 kts | 43° |
| 2026-05-04 19:18 | 52.48548 | 8.20825 | 34899 ft | 513 kts | 43° |
| 2026-05-04 19:18 | 52.53614 | 8.29036 | 34958 ft | 515 kts | 43° |
| 2026-05-04 19:19 | 52.58715 | 8.37331 | 34967 ft | 517 kts | 43° |
| 2026-05-04 19:19 | 52.63797 | 8.45624 | 34967 ft | 516 kts | 43° |
| 2026-05-04 19:20 | 52.68854 | 8.53909 | 34956 ft | 517 kts | 43° |
| 2026-05-04 19:20 | 52.73933 | 8.62252 | 34961 ft | 516 kts | 43° |
| 2026-05-04 19:21 | 52.79033 | 8.70663 | 34953 ft | 515 kts | 44° |
| 2026-05-04 19:21 | 52.83973 | 8.78836 | 34956 ft | 517 kts | 44° |
| 2026-05-04 19:22 | 52.88640 | 8.86586 | 34955 ft | 516 kts | 44° |
| 2026-05-04 19:22 | 52.93569 | 8.94796 | 34965 ft | 528 kts | 43° |
| 2026-05-04 19:23 | 52.98778 | 9.03502 | 34962 ft | 532 kts | 43° |
| 2026-05-04 19:23 | 53.03973 | 9.12219 | 34971 ft | 529 kts | 43° |
| 2026-05-04 19:24 | 53.09114 | 9.20874 | 34973 ft | 531 kts | 43° |
| 2026-05-04 19:24 | 53.14290 | 9.29623 | 34959 ft | 530 kts | 43° |
| 2026-05-04 19:25 | 53.19436 | 9.38351 | 34961 ft | 530 kts | 43° |
| 2026-05-04 19:25 | 53.24605 | 9.47150 | 34965 ft | 529 kts | 43° |
| 2026-05-04 19:26 | 53.29752 | 9.55944 | 34963 ft | 535 kts | 43° |
| 2026-05-04 19:26 | 53.34943 | 9.64845 | 34964 ft | 532 kts | 42° |
| 2026-05-04 19:27 | 53.40026 | 9.73595 | 34960 ft | 527 kts | 43° |
| 2026-05-04 19:27 | 53.45112 | 9.82382 | 34965 ft | 527 kts | 43° |
| 2026-05-04 19:27 | 53.47688 | 9.86843 | 34782 ft | 530 kts | 43° |
| 2026-05-04 19:28 | 53.50245 | 9.91279 | 34347 ft | 532 kts | 43° |
| 2026-05-04 19:28 | 53.52783 | 9.95693 | 33948 ft | 527 kts | 43° |
| 2026-05-04 19:28 | 53.55316 | 10.00104 | 33546 ft | 524 kts | 43° |
| 2026-05-04 19:28 | 53.57831 | 10.04495 | 33151 ft | 524 kts | 43° |
| 2026-05-04 19:29 | 53.60356 | 10.08909 | 32755 ft | 525 kts | 43° |
| 2026-05-04 19:29 | 53.62873 | 10.13315 | 32364 ft | 528 kts | 44° |
| 2026-05-04 19:29 | 53.65431 | 10.17803 | 31971 ft | 529 kts | 44° |
| 2026-05-04 19:29 | 53.67955 | 10.22243 | 31578 ft | 526 kts | 44° |
| 2026-05-04 19:30 | 53.70454 | 10.26644 | 31189 ft | 524 kts | 44° |
| 2026-05-04 19:30 | 53.73051 | 10.30909 | 30798 ft | 521 kts | 39° |
| 2026-05-04 19:30 | 53.75726 | 10.35023 | 30405 ft | 521 kts | 40° |
| 2026-05-04 19:30 | 53.78370 | 10.39172 | 30009 ft | 524 kts | 40° |
| 2026-05-04 19:31 | 53.81059 | 10.43417 | 29613 ft | 530 kts | 40° |
| 2026-05-04 19:31 | 53.83735 | 10.47668 | 29217 ft | 528 kts | 40° |
| 2026-05-04 19:31 | 53.86383 | 10.51888 | 28821 ft | 523 kts | 40° |
| 2026-05-04 19:31 | 53.88997 | 10.56062 | 28427 ft | 518 kts | 40° |
| 2026-05-04 19:32 | 53.91601 | 10.60228 | 28040 ft | 513 kts | 40° |
| 2026-05-04 19:32 | 53.94186 | 10.64378 | 27967 ft | 504 kts | 40° |
| 2026-05-04 19:32 | 53.96709 | 10.68426 | 27968 ft | 508 kts | 41° |
| 2026-05-04 19:32 | 53.99317 | 10.72621 | 27972 ft | 517 kts | 41° |
| 2026-05-04 19:33 | 54.01914 | 10.76808 | 27967 ft | 518 kts | 41° |
| 2026-05-04 19:33 | 54.04509 | 10.81000 | 27973 ft | 525 kts | 41° |
| 2026-05-04 19:33 | 54.07211 | 10.85219 | 27967 ft | 531 kts | 37° |
| 2026-05-04 19:33 | 54.10033 | 10.89326 | 27967 ft | 532 kts | 38° |
| 2026-05-04 19:34 | 54.12835 | 10.93482 | 27964 ft | 530 kts | 38° |
| 2026-05-04 19:34 | 54.15619 | 10.97634 | 27964 ft | 530 kts | 38° |
| 2026-05-04 19:34 | 54.18397 | 11.01787 | 27966 ft | 530 kts | 38° |
| 2026-05-04 19:34 | 54.21153 | 11.05925 | 27966 ft | 530 kts | 38° |
| 2026-05-04 19:35 | 54.23934 | 11.10109 | 27966 ft | 530 kts | 38° |
| 2026-05-04 19:35 | 54.26702 | 11.14283 | 27965 ft | 529 kts | 38° |
| 2026-05-04 19:35 | 54.29419 | 11.18391 | 27966 ft | 529 kts | 38° |
| 2026-05-04 19:35 | 54.32178 | 11.22568 | 27968 ft | 530 kts | 38° |
| 2026-05-04 19:36 | 54.34909 | 11.26712 | 27967 ft | 529 kts | 38° |
| 2026-05-04 19:36 | 54.37667 | 11.30903 | 27967 ft | 528 kts | 38° |
| 2026-05-04 19:36 | 54.40400 | 11.35061 | 27969 ft | 529 kts | 38° |
| 2026-05-04 19:36 | 54.43169 | 11.39287 | 27549 ft | 526 kts | 38° |
| 2026-05-04 19:37 | 54.45796 | 11.43311 | 26792 ft | 513 kts | 38° |
| 2026-05-04 19:37 | 54.48481 | 11.47413 | 25598 ft | 516 kts | 38° |
| 2026-05-04 19:37 | 54.51141 | 11.51496 | 24900 ft | 508 kts | 38° |
| 2026-05-04 19:37 | 54.53754 | 11.55509 | 24195 ft | 501 kts | 38° |
| 2026-05-04 19:38 | 54.56307 | 11.59441 | 23504 ft | 495 kts | 38° |
| 2026-05-04 19:38 | 54.58839 | 11.63345 | 22828 ft | 490 kts | 38° |
| 2026-05-04 19:38 | 54.61368 | 11.67253 | 22145 ft | 484 kts | 39° |
| 2026-05-04 19:38 | 54.63853 | 11.71097 | 21456 ft | 477 kts | 39° |
| 2026-05-04 19:39 | 54.66291 | 11.74877 | 20773 ft | 472 kts | 39° |
| 2026-05-04 19:39 | 54.68725 | 11.78655 | 20084 ft | 468 kts | 39° |
| 2026-05-04 19:39 | 54.71118 | 11.82375 | 19414 ft | 471 kts | 39° |
| 2026-05-04 19:39 | 54.73544 | 11.86155 | 18730 ft | 464 kts | 39° |
| 2026-05-04 19:40 | 54.75901 | 11.89834 | 18059 ft | 459 kts | 39° |
| 2026-05-04 19:40 | 54.78259 | 11.93521 | 17377 ft | 455 kts | 39° |
| 2026-05-04 19:40 | 54.80607 | 11.97197 | 16711 ft | 452 kts | 39° |
| 2026-05-04 19:40 | 54.82907 | 12.00802 | 16210 ft | 449 kts | 39° |
| 2026-05-04 19:41 | 54.85187 | 12.04383 | 15710 ft | 446 kts | 39° |
| 2026-05-04 19:41 | 54.87482 | 12.07994 | 15209 ft | 442 kts | 39° |
| 2026-05-04 19:41 | 54.89735 | 12.11543 | 14711 ft | 438 kts | 39° |
| 2026-05-04 19:41 | 54.91989 | 12.15102 | 14208 ft | 435 kts | 39° |
| 2026-05-04 19:42 | 54.94239 | 12.18657 | 13708 ft | 432 kts | 39° |
| 2026-05-04 19:42 | 54.96449 | 12.22156 | 13216 ft | 431 kts | 39° |
| 2026-05-04 19:42 | 54.98647 | 12.25641 | 12722 ft | 429 kts | 39° |
| 2026-05-04 19:42 | 55.00830 | 12.29108 | 12226 ft | 426 kts | 39° |
| 2026-05-04 19:43 | 55.02967 | 12.32507 | 11735 ft | 418 kts | 39° |
| 2026-05-04 19:43 | 55.05090 | 12.35890 | 11300 ft | 406 kts | 39° |
| 2026-05-04 19:43 | 55.07127 | 12.39143 | 11046 ft | 391 kts | 39° |
| 2026-05-04 19:43 | 55.09091 | 12.42281 | 10788 ft | 377 kts | 39° |
| 2026-05-04 19:44 | 55.10968 | 12.45285 | 10454 ft | 360 kts | 39° |
| 2026-05-04 19:44 | 55.12764 | 12.48166 | 10178 ft | 337 kts | 39° |
| 2026-05-04 19:44 | 55.14440 | 12.50855 | 9980 ft | 317 kts | 38° |
| 2026-05-04 19:44 | 55.16008 | 12.53374 | 9831 ft | 300 kts | 38° |
| 2026-05-04 19:45 | 55.17540 | 12.55830 | 9730 ft | 300 kts | 38° |
| 2026-05-04 19:45 | 55.19062 | 12.58277 | 9475 ft | 297 kts | 38° |
| 2026-05-04 19:45 | 55.20577 | 12.60716 | 9224 ft | 294 kts | 38° |
| 2026-05-04 19:45 | 55.22069 | 12.63120 | 8934 ft | 293 kts | 38° |
| 2026-05-04 19:46 | 55.23729 | 12.65085 | 8569 ft | 286 kts | 17° |
| 2026-05-04 19:46 | 55.25609 | 12.66220 | 8218 ft | 285 kts | 14° |
| 2026-05-04 19:46 | 55.27485 | 12.67328 | 7844 ft | 286 kts | 14° |
| 2026-05-04 19:46 | 55.29369 | 12.68424 | 7497 ft | 285 kts | 14° |
| 2026-05-04 19:47 | 55.31235 | 12.69500 | 7072 ft | 281 kts | 14° |
| 2026-05-04 19:47 | 55.33038 | 12.70538 | 6822 ft | 266 kts | 14° |
| 2026-05-04 19:47 | 55.34768 | 12.71530 | 6575 ft | 259 kts | 14° |
| 2026-05-04 19:47 | 55.36471 | 12.72502 | 6344 ft | 256 kts | 14° |
| 2026-05-04 19:48 | 55.38159 | 12.73468 | 6109 ft | 255 kts | 14° |
| 2026-05-04 19:48 | 55.39844 | 12.74432 | 5767 ft | 255 kts | 14° |
| 2026-05-04 19:48 | 55.41533 | 12.75399 | 5410 ft | 257 kts | 14° |
| 2026-05-04 19:48 | 55.43219 | 12.76364 | 5046 ft | 259 kts | 14° |
| 2026-05-04 19:49 | 55.44919 | 12.77343 | 4958 ft | 250 kts | 14° |
| 2026-05-04 19:49 | 55.46551 | 12.78281 | 4949 ft | 247 kts | 14° |
| 2026-05-04 19:49 | 55.48186 | 12.79220 | 4960 ft | 247 kts | 14° |
| 2026-05-04 19:49 | 55.49813 | 12.80156 | 4971 ft | 248 kts | 14° |
| 2026-05-04 19:50 | 55.51462 | 12.81104 | 4903 ft | 251 kts | 14° |
| 2026-05-04 19:50 | 55.53125 | 12.82062 | 4642 ft | 251 kts | 14° |
| 2026-05-04 19:50 | 55.54786 | 12.83021 | 4387 ft | 249 kts | 14° |
| 2026-05-04 19:50 | 55.56397 | 12.84034 | 4126 ft | 249 kts | 19° |
| 2026-05-04 19:51 | 55.57986 | 12.85190 | 3921 ft | 241 kts | 19° |
| 2026-05-04 19:51 | 55.59472 | 12.86265 | 3974 ft | 219 kts | 18° |
| 2026-05-04 19:51 | 55.60835 | 12.87246 | 4015 ft | 214 kts | 18° |
| 2026-05-04 19:51 | 55.62226 | 12.88255 | 3959 ft | 212 kts | 21° |
| 2026-05-04 19:52 | 55.63421 | 12.89763 | 3980 ft | 213 kts | 37° |
| 2026-05-04 19:52 | 55.64559 | 12.91517 | 3959 ft | 217 kts | 37° |
| 2026-05-04 19:52 | 55.65624 | 12.93148 | 3977 ft | 216 kts | 37° |
| 2026-05-04 19:52 | 55.66779 | 12.94935 | 3968 ft | 217 kts | 37° |
| 2026-05-04 19:53 | 55.67841 | 12.96588 | 3961 ft | 216 kts | 37° |
| 2026-05-04 19:53 | 55.68975 | 12.98355 | 3963 ft | 216 kts | 37° |
| 2026-05-04 19:53 | 55.70129 | 13.00154 | 3759 ft | 222 kts | 37° |
| 2026-05-04 19:53 | 55.71269 | 13.01941 | 3514 ft | 220 kts | 37° |
| 2026-05-04 19:54 | 55.72405 | 13.03736 | 3256 ft | 219 kts | 37° |
| 2026-05-04 19:54 | 55.73672 | 13.05095 | 3004 ft | 210 kts | 16° |
| 2026-05-04 19:54 | 55.75020 | 13.05967 | 2942 ft | 202 kts | 15° |
| 2026-05-04 19:54 | 55.76335 | 13.06825 | 2956 ft | 201 kts | 15° |
| 2026-05-04 19:55 | 55.77653 | 13.07679 | 2960 ft | 204 kts | 15° |
| 2026-05-04 19:55 | 55.79024 | 13.07966 | 2943 ft | 194 kts | 343° |
| 2026-05-04 19:55 | 55.80160 | 13.06840 | 2976 ft | 190 kts | 317° |
| 2026-05-04 19:55 | 55.81132 | 13.05228 | 2959 ft | 193 kts | 315° |
| 2026-05-04 19:56 | 55.82110 | 13.03584 | 2968 ft | 187 kts | 315° |
| 2026-05-04 19:56 | 55.82960 | 13.01954 | 2917 ft | 178 kts | 299° |
| 2026-05-04 19:56 | 55.83136 | 12.99888 | 2936 ft | 170 kts | 258° |
| 2026-05-04 19:56 | 55.82457 | 12.98129 | 3000 ft | 182 kts | 228° |
| 2026-05-04 19:57 | 55.81502 | 12.96568 | 2955 ft | 186 kts | 228° |
| 2026-05-04 19:57 | 55.80571 | 12.95029 | 2940 ft | 181 kts | 228° |
| 2026-05-04 19:57 | 55.79640 | 12.93514 | 2954 ft | 181 kts | 228° |
| 2026-05-04 19:57 | 55.78710 | 12.92013 | 2954 ft | 183 kts | 227° |
| 2026-05-04 19:58 | 55.77767 | 12.90504 | 2949 ft | 182 kts | 226° |
| 2026-05-04 19:58 | 55.76820 | 12.89002 | 2956 ft | 183 kts | 227° |
| 2026-05-04 19:58 | 55.75871 | 12.87502 | 2954 ft | 182 kts | 226° |
| 2026-05-04 19:58 | 55.74932 | 12.86023 | 2964 ft | 183 kts | 226° |
| 2026-05-04 19:59 | 55.73980 | 12.84531 | 2951 ft | 179 kts | 226° |
| 2026-05-04 19:59 | 55.73034 | 12.83054 | 2807 ft | 186 kts | 226° |
| 2026-05-04 19:59 | 55.72062 | 12.81532 | 2563 ft | 185 kts | 226° |
| 2026-05-04 19:59 | 55.71111 | 12.80058 | 2303 ft | 174 kts | 226° |
| 2026-05-04 20:00 | 55.70245 | 12.78718 | 2075 ft | 162 kts | 226° |
| 2026-05-04 20:00 | 55.69400 | 12.77394 | 1850 ft | 161 kts | 226° |
| 2026-05-04 20:00 | 55.68584 | 12.76127 | 1642 ft | 148 kts | 226° |
| 2026-05-04 20:00 | 55.67825 | 12.74948 | 1411 ft | 143 kts | 226° |
| 2026-05-04 20:01 | 55.67095 | 12.73809 | 1221 ft | 141 kts | 226° |
| 2026-05-04 20:01 | 55.66345 | 12.72637 | 1045 ft | 145 kts | 226° |
| 2026-05-04 20:01 | 55.65585 | 12.71457 | 865 ft | 148 kts | 225° |
| 2026-05-04 20:01 | 55.64807 | 12.70283 | 683 ft | 147 kts | 225° |
| 2026-05-04 20:02 | 55.64021 | 12.69059 | 466 ft | 149 kts | 225° |
| 2026-05-04 20:02 | 55.63257 | 12.67860 | 280 ft | 147 kts | 224° |
| 2026-05-04 20:02 | 55.62483 | 12.66659 | 53 ft | 147 kts | 224° |
| 2026-05-04 20:02 | 55.61806 | 12.65608 | 28 ft | 90 kts | 221° |
| 2026-05-04 20:03 | 55.61607 | 12.65147 | 28 ft | 31 kts | 273° |
| 2026-05-04 20:03 | 55.61648 | 12.64959 | 29 ft | 5 kts | 306° |
| 2026-05-04 20:03 | 55.61661 | 12.64929 | 29 ft | 4 kts | 308° |
| 2026-05-04 20:03 | 55.61688 | 12.64876 | 29 ft | 5 kts | 314° |
| 2026-05-04 20:04 | 55.61702 | 12.64854 | 29 ft | 3 kts | 321° |
| 2026-05-04 20:04 | 55.61704 | 12.64850 | 29 ft | 1 kts | 322° |
| 2026-05-04 20:04 | 55.61739 | 12.64813 | 31 ft | 9 kts | 332° |
| 2026-05-04 20:04 | 55.61817 | 12.64785 | 29 ft | 14 kts | 4° |
| 2026-05-04 20:05 | 55.61905 | 12.64830 | 28 ft | 8 kts | 26° |
| 2026-05-04 20:05 | 55.61965 | 12.64898 | 28 ft | 12 kts | 35° |
| 2026-05-04 20:05 | 55.62013 | 12.64951 | 28 ft | 9 kts | 32° |
| 2026-05-04 20:05 | 55.62049 | 12.64991 | 28 ft | 0 kts | 32° |
| 2026-05-04 20:06 | 55.62059 | 12.65001 | 28 ft | 0 kts | 32° |
| 2026-05-04 20:06 | 55.62060 | 12.65003 | 28 ft | 1 kts | 32° |
| 2026-05-04 20:06 | 55.62069 | 12.65013 | 28 ft | 0 kts | 33° |
| 2026-05-04 20:06 | 55.62076 | 12.65021 | 28 ft | 0 kts | 33° |
| 2026-05-04 20:07 | 55.62095 | 12.65044 | 29 ft | 7 kts | 35° |
| 2026-05-04 20:07 | 55.62147 | 12.65100 | 33 ft | 10 kts | 14° |
| 2026-05-04 20:07 | 55.62215 | 12.65004 | 30 ft | 16 kts | 307° |
| 2026-05-04 20:07 | 55.62269 | 12.64862 | 29 ft | 12 kts | 303° |
| 2026-05-04 20:08 | 55.62318 | 12.64728 | 29 ft | 13 kts | 303° |
| 2026-05-04 20:08 | 55.62375 | 12.64576 | 29 ft | 15 kts | 306° |
| 2026-05-04 20:08 | 55.62422 | 12.64455 | 29 ft | 8 kts | 306° |
| 2026-05-04 20:08 | 55.62459 | 12.64367 | 29 ft | 8 kts | 309° |
| 2026-05-04 20:09 | 55.62486 | 12.64305 | 29 ft | 1 kts | 306° |
| 2026-05-04 20:09 | 55.62494 | 12.64287 | 29 ft | 5 kts | 306° |
| 2026-05-04 20:09 | 55.62534 | 12.64208 | 29 ft | 11 kts | 340° |
| 2026-05-04 20:09 | 55.62575 | 12.64236 | 29 ft | 1 kts | 56° |
| 2026-05-04 20:10 | 55.62590 | 12.64281 | 29 ft | 6 kts | 63° |
| 2026-05-04 20:10 | 55.62610 | 12.64353 | 29 ft | 2 kts | 69° |
| 2026-05-04 20:10 | 55.62618 | 12.64388 | 29 ft | 1 kts | 67° |
| 2026-05-04 20:10 | 55.62623 | 12.64410 | 29 ft | 1 kts | 66° |
| 2026-05-04 20:11 | 55.62625 | 12.64417 | 29 ft | 0 kts | 66° |